createdAt,value
2023-05-06T00:03:09.366Z,9
2023-05-06T00:07:52.674Z,9
2023-05-06T00:12:34.990Z,9
2023-05-06T00:17:17.713Z,9
2023-05-06T00:22:00.520Z,9
2023-05-06T00:26:43.229Z,9
2023-05-06T00:31:25.251Z,9
2023-05-06T00:36:07.964Z,9
2023-05-06T00:40:50.677Z,9
2023-05-06T00:45:33.396Z,9
2023-05-06T00:50:16.100Z,9
2023-05-06T00:54:58.814Z,9
2023-05-06T00:59:41.630Z,9
2023-05-06T01:04:24.350Z,9
2023-05-06T01:09:07.067Z,9
2023-05-06T01:13:49.778Z,9
2023-05-06T01:18:32.496Z,9
2023-05-06T01:23:15.215Z,9
2023-05-06T01:27:58.023Z,9
2023-05-06T01:32:40.054Z,9
2023-05-06T01:37:22.757Z,9
2023-05-06T01:42:05.478Z,9
2023-05-06T01:46:48.184Z,9
2023-05-06T01:51:30.903Z,9
2023-05-06T02:00:56.426Z,9
2023-05-06T02:05:39.153Z,9
2023-05-06T02:10:21.858Z,9
2023-05-06T02:15:04.571Z,9
2023-05-06T02:24:29.995Z,9
2023-05-06T02:29:12.819Z,9
2023-05-06T02:33:55.538Z,9
2023-05-06T02:38:38.245Z,9
2023-05-06T02:48:02.979Z,9
2023-05-06T02:52:45.685Z,9
2023-05-06T02:57:28.400Z,9
2023-05-06T03:02:11.118Z,9
2023-05-06T03:11:36.646Z,9
2023-05-06T03:16:19.360Z,12
2023-05-06T03:21:02.070Z,15
2023-05-06T03:30:27.510Z,35
2023-05-06T03:35:10.313Z,58
2023-05-06T03:39:53.038Z,103
2023-05-06T03:44:35.749Z,109
2023-05-06T03:49:18.459Z,124
2023-05-06T03:54:01.177Z,194
2023-05-06T03:58:43.998Z,175
2023-05-06T04:03:26.702Z,364
2023-05-06T04:08:09.409Z,444
2023-05-06T04:12:52.127Z,680
2023-05-06T04:22:17.557Z,1157
2023-05-06T04:27:00.378Z,1637
2023-05-06T04:31:43.087Z,1599
2023-05-06T04:36:25.105Z,1556
2023-05-06T04:41:07.828Z,1489
2023-05-06T04:45:50.536Z,2275
2023-05-06T04:50:33.358Z,2183
2023-05-06T04:55:16.065Z,2538
2023-05-06T04:59:58.812Z,2829
2023-05-06T05:04:41.490Z,4352
2023-05-06T05:09:24.199Z,5121
2023-05-06T05:14:06.924Z,4487
2023-05-06T05:18:49.732Z,5014
2023-05-06T05:23:32.442Z,6114
2023-05-06T05:28:15.114Z,7260
2023-05-06T05:32:57.925Z,7248
2023-05-06T05:37:40.640Z,7596
2023-05-06T05:42:23.360Z,6114
2023-05-06T05:47:05.476Z,6738
2023-05-06T05:51:47.472Z,10333
2023-05-06T05:56:30.190Z,7029
2023-05-06T06:01:12.899Z,8333
2023-05-06T06:05:55.642Z,8698
2023-05-06T06:10:38.331Z,7683
2023-05-06T06:15:21.049Z,9967
2023-05-06T06:20:03.849Z,6225
2023-05-06T06:24:46.571Z,9742
2023-05-06T06:29:29.287Z,13094
2023-05-06T06:34:12.014Z,11240
2023-05-06T06:38:54.729Z,11185
2023-05-06T06:43:37.439Z,10753
2023-05-06T06:48:20.243Z,21335
2023-05-06T06:53:02.962Z,21883
2023-05-06T06:57:45.677Z,15822
2023-05-06T07:02:28.391Z,19645
2023-05-06T07:07:11.118Z,18015
2023-05-06T07:11:53.819Z,18396
2023-05-06T07:16:36.636Z,22481
2023-05-06T07:21:19.335Z,18353
2023-05-06T07:30:44.776Z,21395
2023-05-06T07:35:27.489Z,18911
2023-05-06T07:40:10.211Z,43886
2023-05-06T07:49:35.732Z,23578
2023-05-06T07:54:18.454Z,40227
2023-05-06T07:59:01.168Z,34914
2023-05-06T08:03:43.877Z,33867
2023-05-06T08:08:26.596Z,31318
2023-05-06T08:13:09.318Z,58455
2023-05-06T08:17:52.131Z,29330
2023-05-06T08:22:34.854Z,13800
2023-05-06T08:27:17.561Z,10284
2023-05-06T08:32:00.272Z,15913
2023-05-06T08:36:42.991Z,51071
2023-05-06T08:46:09.028Z,21773
2023-05-06T08:50:52.331Z,25156
2023-05-06T08:55:35.555Z,34387
2023-05-06T09:00:18.859Z,7315
2023-05-06T09:05:02.099Z,49039
2023-05-06T09:09:45.401Z,45228
2023-05-06T09:19:11.932Z,231
2023-05-06T09:23:55.145Z,38041
2023-05-06T09:28:37.960Z,54774
2023-05-06T09:38:04.505Z,22073
2023-05-06T09:42:47.808Z,26816
2023-05-06T09:47:31.022Z,16929
2023-05-06T10:01:40.872Z,35656
2023-05-06T10:11:07.410Z,51741
2023-05-06T10:20:33.944Z,22684
2023-05-06T10:34:43.677Z,32928
2023-05-06T10:39:27.027Z,18459
2023-05-06T10:48:53.523Z,17135
2023-05-06T10:58:20.057Z,35173
2023-05-06T11:03:03.274Z,26235
2023-05-06T11:07:46.586Z,13145
2023-05-06T11:12:29.797Z,1095
2023-05-06T11:17:13.125Z,59039
2023-05-06T11:21:56.333Z,18652
2023-05-06T11:26:39.355Z,25062
2023-05-06T11:31:22.658Z,15246
2023-05-06T11:36:05.872Z,24878
2023-05-06T11:45:32.408Z,53652
2023-05-06T11:50:15.731Z,49597
2023-05-06T11:59:42.250Z,21426
2023-05-06T12:04:25.470Z,27316
2023-05-06T12:09:08.782Z,25664
2023-05-06T12:13:52.011Z,34856
2023-05-06T12:23:18.535Z,30456
2023-05-06T12:32:45.075Z,41457
2023-05-06T12:42:11.637Z,29099
2023-05-06T12:46:54.915Z,16068
2023-05-06T12:51:38.124Z,33257
2023-05-06T12:56:21.454Z,33920
2023-05-06T13:01:04.681Z,19638
2023-05-06T13:05:47.978Z,29670
2023-05-06T13:10:31.199Z,28405
2023-05-06T13:15:14.526Z,8270
2023-05-06T13:19:57.733Z,27618
2023-05-06T13:29:26.162Z,21785
2023-05-06T13:34:10.284Z,24046
2023-05-06T13:43:38.621Z,20522
2023-05-06T13:48:22.930Z,14609
2023-05-06T13:53:07.150Z,17579
2023-05-06T13:57:51.267Z,19228
2023-05-06T14:02:35.486Z,14710
2023-05-06T14:07:19.604Z,11206
2023-05-06T14:16:48.047Z,11408
2023-05-06T14:21:32.171Z,17239
2023-05-06T14:26:16.376Z,17804
2023-05-06T14:31:00.486Z,23390
2023-05-06T14:35:44.705Z,31854
2023-05-06T14:40:28.823Z,37265
2023-05-06T14:45:13.046Z,23194
2023-05-06T14:49:57.199Z,29566
2023-05-06T14:54:41.580Z,27052
2023-05-06T14:59:25.692Z,25327
2023-05-06T15:08:54.222Z,29768
2023-05-06T15:13:38.348Z,30779
2023-05-06T15:23:06.681Z,30357
2023-05-06T15:27:50.899Z,32863
2023-05-06T15:32:35.012Z,1128
2023-05-06T15:37:19.238Z,63171
2023-05-06T15:42:03.450Z,21
2023-05-06T15:46:47.569Z,54863
2023-05-06T15:51:31.783Z,54223
2023-05-06T16:01:00.122Z,55020
2023-05-06T16:10:28.470Z,22820
2023-05-06T16:15:12.569Z,13613
2023-05-06T16:19:56.289Z,12574
2023-05-06T16:24:39.500Z,12479
2023-05-06T16:34:06.029Z,10371
2023-05-06T16:38:49.358Z,9236
2023-05-06T16:43:32.595Z,8278
2023-05-06T16:48:15.887Z,7807
2023-05-06T16:52:59.103Z,6954
2023-05-06T17:07:08.446Z,3987
2023-05-06T17:11:51.774Z,3538
2023-05-06T17:16:34.985Z,3338
2023-05-06T17:21:18.297Z,3787
2023-05-06T17:26:01.787Z,3943
2023-05-06T17:40:11.507Z,3149
2023-05-06T17:44:54.707Z,2730
2023-05-06T17:54:21.245Z,1826
2023-05-06T17:59:04.510Z,1477
2023-05-06T18:03:47.787Z,1236
2023-05-06T18:13:14.166Z,1019
2023-05-06T18:17:57.700Z,925
2023-05-06T18:27:24.185Z,525
2023-05-06T18:32:06.901Z,416
2023-05-06T18:36:50.194Z,321
2023-05-06T18:46:16.818Z,154
2023-05-06T18:51:00.093Z,100
2023-05-06T18:55:43.255Z,58
2023-05-06T19:05:09.749Z,18
2023-05-06T19:09:53.001Z,12
2023-05-06T19:14:36.334Z,12
2023-05-06T19:24:02.906Z,9
2023-05-06T19:28:46.174Z,9
2023-05-06T19:38:12.726Z,9
2023-05-06T19:42:55.766Z,9
2023-05-06T19:47:39.246Z,9
2023-05-06T19:52:22.456Z,9
2023-05-06T19:57:05.771Z,9
2023-05-06T20:01:48.999Z,9
2023-05-06T20:06:32.317Z,9
2023-05-06T20:15:58.884Z,9
2023-05-06T20:20:42.118Z,9
2023-05-06T20:25:25.392Z,9
2023-05-06T20:34:51.334Z,9
2023-05-06T20:39:34.704Z,9
2023-05-06T20:49:01.180Z,9
2023-05-06T20:53:44.612Z,9
2023-05-06T20:58:27.806Z,9
2023-05-06T21:07:54.291Z,9
2023-05-06T21:12:37.569Z,9
2023-05-06T21:17:20.666Z,9
2023-05-06T21:26:47.190Z,9
2023-05-06T21:31:30.520Z,9
2023-05-06T21:36:13.840Z,9
2023-05-06T21:45:40.470Z,9
2023-05-06T21:50:23.720Z,9
2023-05-06T21:59:50.290Z,9
2023-05-06T22:04:33.504Z,9
2023-05-06T22:09:16.811Z,9
2023-05-06T22:18:42.961Z,9
2023-05-06T22:23:26.229Z,9
2023-05-06T22:28:09.159Z,9
2023-05-06T22:37:35.675Z,9
2023-05-06T22:42:18.896Z,9
2023-05-06T22:47:02.212Z,9
2023-05-06T22:56:28.750Z,9
2023-05-06T23:01:12.017Z,9
2023-05-06T23:10:38.495Z,9
2023-05-06T23:15:21.797Z,9
2023-05-06T23:20:05.067Z,9
2023-05-06T23:29:31.470Z,9
2023-05-06T23:34:14.761Z,9
2023-05-06T23:38:58.056Z,9
2023-05-06T23:48:24.453Z,9
2023-05-06T23:53:07.787Z,9
2023-05-06T23:57:50.983Z,9
